createdAt,value
2022-12-09T00:01:29.662Z,99979.94
2022-12-09T00:03:56.265Z,99984.94
2022-12-09T00:06:27.626Z,99988.50
2022-12-09T00:08:55.463Z,99991.97
2022-12-09T00:11:22.723Z,99988.41
2022-12-09T00:13:50.182Z,99992.44
2022-12-09T00:16:16.744Z,99988.38
2022-12-09T00:18:43.791Z,99990.63
2022-12-09T00:21:23.686Z,99988.06
2022-12-09T00:23:51.285Z,99982.81
2022-12-09T00:26:18.326Z,99984.94
2022-12-09T00:28:45.009Z,99985.69
2022-12-09T00:31:20.003Z,99981.97
2022-12-09T00:33:46.465Z,99983.59
2022-12-09T00:36:16.082Z,99979.69
2022-12-09T00:38:43.094Z,99975.34
2022-12-09T00:41:10.027Z,99978.03
2022-12-09T00:43:36.564Z,99973.13
2022-12-09T00:46:03.048Z,99985.25
2022-12-09T00:48:29.915Z,99978.22
2022-12-09T00:50:56.477Z,99977.75
2022-12-09T00:53:22.954Z,99973.41
2022-12-09T00:55:49.370Z,99973.25
2022-12-09T00:58:16.075Z,99975.81
2022-12-09T01:00:42.455Z,99976.53
2022-12-09T01:03:13.139Z,99981.31
2022-12-09T01:05:40.369Z,99971.13
2022-12-09T01:08:07.478Z,99972.94
2022-12-09T01:10:34.950Z,99967.81
2022-12-09T01:13:01.348Z,99971.44
2022-12-09T01:15:27.880Z,99974.75
2022-12-09T01:17:54.322Z,99969.63
2022-12-09T01:20:20.717Z,99976.66
2022-12-09T01:22:47.599Z,99978.31
2022-12-09T01:25:14.642Z,99978.94
2022-12-09T01:27:41.350Z,99985.22
2022-12-09T01:30:12.045Z,99977.56
2022-12-09T01:32:38.744Z,99972.75
2022-12-09T01:35:05.520Z,99976.03
2022-12-09T01:37:33.146Z,99983.88
2022-12-09T01:39:59.878Z,99973.81
2022-12-09T01:42:26.791Z,99978.44
2022-12-09T01:45:21.520Z,99975.28
2022-12-09T01:47:49.707Z,99976.78
2022-12-09T01:50:16.811Z,99982.13
2022-12-09T01:52:44.702Z,99979.31
2022-12-09T01:55:11.320Z,99976.72
2022-12-09T01:57:46.151Z,99978.50
2022-12-09T02:00:13.658Z,99976.09
2022-12-09T02:02:43.876Z,99980.97
2022-12-09T02:05:10.572Z,99970.28
2022-12-09T02:07:37.314Z,99974.34
2022-12-09T02:10:06.470Z,99985.19
2022-12-09T02:12:36.395Z,99972.13
2022-12-09T02:15:21.750Z,99977.38
2022-12-09T02:17:54.671Z,99971.97
2022-12-09T02:20:50.296Z,99969.97
2022-12-09T02:23:25.120Z,99961.09
2022-12-09T02:26:08.052Z,99964.72
2022-12-09T02:28:46.101Z,99967.13
2022-12-09T02:31:36.794Z,99954.38
2022-12-09T02:34:11.612Z,99963.53
2022-12-09T02:37:16.427Z,99954.78
2022-12-09T02:40:18.690Z,99956.28
2022-12-09T02:42:46.871Z,99951.63
2022-12-09T02:45:14.153Z,99948.47
2022-12-09T02:47:44.811Z,99951.97
2022-12-09T02:50:14.467Z,99953.84
2022-12-09T02:52:42.827Z,99942.63
2022-12-09T02:55:10.100Z,99944.16
2022-12-09T02:57:38.428Z,99948.19
2022-12-09T03:00:06.798Z,99948.34
2022-12-09T03:02:39.991Z,99938.88
2022-12-09T03:05:22.087Z,99938.59
2022-12-09T03:07:56.930Z,99943.41
2022-12-09T03:10:33.268Z,99935.44
2022-12-09T03:13:09.719Z,99934.66
2022-12-09T03:15:37.769Z,99941.28
2022-12-09T03:18:07.312Z,99944.63
2022-12-09T03:20:36.979Z,99950.34
2022-12-09T03:23:05.737Z,99940.59
2022-12-09T03:25:39.796Z,99949.91
2022-12-09T03:28:10.540Z,99940.34
2022-12-09T03:30:39.708Z,99940.81
2022-12-09T03:33:07.132Z,99934.78
2022-12-09T03:35:36.447Z,99938.31
2022-12-09T03:38:05.509Z,99931.13
2022-12-09T03:40:32.994Z,99941.47
2022-12-09T03:43:05.959Z,99939.66
2022-12-09T03:45:32.537Z,99928.97
2022-12-09T03:47:59.485Z,99935.28
2022-12-09T03:50:29.459Z,99932.59
2022-12-09T03:53:05.180Z,99930.47
2022-12-09T03:55:52.585Z,99929.13
2022-12-09T03:58:19.229Z,99920.66
2022-12-09T04:00:46.292Z,99925.16
2022-12-09T04:03:14.766Z,99922.66
2022-12-09T04:05:43.242Z,99916.03
2022-12-09T04:08:10.274Z,99915.91
2022-12-09T04:10:36.745Z,99918.34
2022-12-09T04:13:03.225Z,99916.41
2022-12-09T04:15:29.637Z,99916.28
2022-12-09T04:17:56.561Z,99916.56
2022-12-09T04:20:23.036Z,99920.31
2022-12-09T04:22:49.404Z,99910.69
2022-12-09T04:25:15.886Z,99915.16
2022-12-09T04:27:42.264Z,99907.81
2022-12-09T04:30:09.392Z,99903.22
2022-12-09T04:32:36.434Z,99901.69
2022-12-09T04:35:02.997Z,99904.41
2022-12-09T04:37:29.552Z,99904.44
2022-12-09T04:39:56.347Z,99897.25
2022-12-09T04:42:22.756Z,99900.09
2022-12-09T04:44:49.114Z,99894.69
2022-12-09T04:47:16.004Z,99897.25
2022-12-09T04:49:42.807Z,99893.97
2022-12-09T04:52:09.288Z,99896.69
2022-12-09T04:54:35.695Z,99898.22
2022-12-09T04:57:02.454Z,99882.31
2022-12-09T04:59:30.906Z,99898.22
2022-12-09T05:01:57.537Z,99890.56
2022-12-09T05:04:24.775Z,99892.38
2022-12-09T05:06:51.392Z,99896.13
2022-12-09T05:09:18.286Z,99894.78
2022-12-09T05:11:44.827Z,99893.41
2022-12-09T05:14:11.369Z,99892.84
2022-12-09T05:16:38.004Z,99898.25
2022-12-09T05:19:04.773Z,99897.59
2022-12-09T05:21:31.410Z,99903.63
2022-12-09T05:23:58.273Z,99904.66
2022-12-09T05:26:24.974Z,99909.31
2022-12-09T05:28:51.854Z,99915.63
2022-12-09T05:31:21.105Z,99905.88
2022-12-09T05:33:48.794Z,99901.22
2022-12-09T05:36:17.205Z,99899.75
2022-12-09T05:38:44.396Z,99898.69
2022-12-09T05:41:11.082Z,99898.53
2022-12-09T05:43:37.726Z,99895.09
2022-12-09T05:46:05.179Z,99896.28
2022-12-09T05:48:32.596Z,99900.03
2022-12-09T05:51:04.349Z,99898.03
2022-12-09T05:53:31.611Z,99894.31
2022-12-09T05:55:58.398Z,99899.88
2022-12-09T05:58:25.206Z,99894.03
2022-12-09T06:00:52.049Z,99899.72
2022-12-09T06:03:18.895Z,99900.63
2022-12-09T06:05:45.981Z,99896.56
2022-12-09T06:08:12.729Z,99892.69
2022-12-09T06:10:41.185Z,99894.91
2022-12-09T06:13:08.534Z,99882.63
2022-12-09T06:15:35.329Z,99884.41
2022-12-09T06:18:02.139Z,99886.38
2022-12-09T06:20:29.185Z,99884.41
2022-12-09T06:22:55.916Z,99887.13
2022-12-09T06:25:23.267Z,99887.41
2022-12-09T06:27:49.789Z,99884.72
2022-12-09T06:30:16.739Z,99884.06
2022-12-09T06:32:43.283Z,99883.88
2022-12-09T06:35:10.923Z,99887.59
2022-12-09T06:37:37.613Z,99885.38
2022-12-09T06:40:05.576Z,99890.00
2022-12-09T06:42:32.052Z,99886.75
2022-12-09T06:44:58.783Z,99884.03
2022-12-09T06:47:25.675Z,99889.91
2022-12-09T06:49:52.384Z,99881.94
2022-12-09T06:52:19.064Z,99877.31
2022-12-09T06:54:45.575Z,99878.72
2022-12-09T06:57:12.096Z,99887.94
2022-12-09T06:59:38.740Z,99888.53
2022-12-09T07:02:05.561Z,99889.19
2022-12-09T07:04:32.329Z,99892.59
2022-12-09T07:06:59.115Z,99889.47
2022-12-09T07:09:26.059Z,99890.06
2022-12-09T07:11:52.892Z,99888.94
2022-12-09T07:14:20.725Z,99896.63
2022-12-09T07:16:48.066Z,99896.31
2022-12-09T07:19:18.074Z,99902.03
2022-12-09T07:21:44.963Z,99898.41
2022-12-09T07:24:12.668Z,99903.78
2022-12-09T07:26:39.430Z,99905.78
2022-12-09T07:29:07.404Z,99903.59
2022-12-09T07:31:34.634Z,99903.78
2022-12-09T07:34:02.000Z,99909.38
2022-12-09T07:36:30.337Z,99904.59
2022-12-09T07:38:59.340Z,99906.63
2022-12-09T07:41:25.932Z,99907.97
2022-12-09T07:43:52.908Z,99906.47
2022-12-09T07:46:20.889Z,99908.88
2022-12-09T07:48:48.294Z,99913.31
2022-12-09T07:51:15.245Z,99917.97
2022-12-09T07:53:41.924Z,99916.16
2022-12-09T07:56:11.811Z,99912.59
2022-12-09T07:58:38.957Z,99913.59
2022-12-09T08:01:13.415Z,99911.19
2022-12-09T08:03:40.515Z,99916.31
2022-12-09T08:06:09.256Z,99922.06
2022-12-09T08:08:35.960Z,99919.22
2022-12-09T08:11:11.485Z,99921.59
2022-12-09T08:13:38.505Z,99932.53
2022-12-09T08:16:07.123Z,99931.75
2022-12-09T08:18:34.971Z,99935.69
2022-12-09T08:21:14.020Z,99931.00
2022-12-09T08:23:41.127Z,99934.03
2022-12-09T08:26:10.412Z,99930.41
2022-12-09T08:28:37.226Z,99931.13
2022-12-09T08:31:15.507Z,99929.19
2022-12-09T08:33:42.485Z,99932.75
2022-12-09T08:36:12.999Z,99931.53
2022-12-09T08:38:40.042Z,99932.06
2022-12-09T08:41:13.238Z,99933.63
2022-12-09T08:43:40.759Z,99933.91
2022-12-09T08:46:07.988Z,99929.25
2022-12-09T08:48:39.048Z,99929.59
2022-12-09T08:51:06.466Z,99931.84
2022-12-09T08:53:32.981Z,99923.56
2022-12-09T08:55:59.945Z,99923.97
2022-12-09T08:58:26.491Z,99920.22
2022-12-09T09:00:53.403Z,99915.19
2022-12-09T09:03:20.345Z,99921.00
2022-12-09T09:05:47.659Z,99922.78
2022-12-09T09:08:14.316Z,99921.91
2022-12-09T09:10:41.015Z,99923.75
2022-12-09T09:13:08.311Z,99927.69
2022-12-09T09:15:35.066Z,99924.34
2022-12-09T09:18:02.121Z,99912.00
2022-12-09T09:20:28.909Z,99914.41
2022-12-09T09:23:02.600Z,99914.75
2022-12-09T09:25:29.967Z,99912.44
2022-12-09T09:27:56.575Z,99912.34
2022-12-09T09:30:23.538Z,99913.44
2022-12-09T09:32:50.313Z,99915.06
2022-12-09T09:35:17.258Z,99910.19
2022-12-09T09:37:43.909Z,99921.06
2022-12-09T09:40:10.837Z,99922.34
2022-12-09T09:42:45.358Z,99921.31
2022-12-09T09:45:15.874Z,99928.22
2022-12-09T09:47:55.387Z,99914.81
2022-12-09T09:50:31.937Z,99921.13
2022-12-09T09:52:59.267Z,99922.78
2022-12-09T09:55:40.759Z,99920.50
2022-12-09T09:58:17.078Z,99918.94
2022-12-09T10:01:09.536Z,99916.31
2022-12-09T10:04:00.713Z,99916.19
2022-12-09T10:06:43.517Z,99904.88
2022-12-09T10:09:39.297Z,99907.81
2022-12-09T10:12:15.469Z,99907.41
2022-12-09T10:14:48.486Z,99907.59
2022-12-09T10:17:20.916Z,99903.50
2022-12-09T10:19:50.353Z,99899.13
2022-12-09T10:22:22.071Z,99892.75
2022-12-09T10:25:00.173Z,99895.50
2022-12-09T10:27:38.194Z,99889.00
2022-12-09T10:30:12.242Z,99892.19
2022-12-09T10:32:40.272Z,99890.00
2022-12-09T10:35:25.011Z,99886.47
2022-12-09T10:37:54.205Z,99891.38
2022-12-09T10:40:41.577Z,99887.81
2022-12-09T10:43:44.215Z,99884.66
2022-12-09T10:46:19.646Z,99888.22
2022-12-09T10:48:46.880Z,99886.34
2022-12-09T10:51:28.251Z,99882.81
2022-12-09T10:53:59.046Z,99882.13
2022-12-09T10:56:37.819Z,99887.25
2022-12-09T10:59:10.624Z,99886.25
2022-12-09T11:01:55.710Z,99878.31
2022-12-09T11:04:34.228Z,99877.31
2022-12-09T11:07:15.725Z,99886.97
2022-12-09T11:09:43.739Z,99886.75
2022-12-09T11:12:17.584Z,99892.59
2022-12-09T11:14:58.400Z,99883.28
2022-12-09T11:17:28.329Z,99885.06
2022-12-09T11:20:17.627Z,99885.41
2022-12-09T11:22:45.923Z,99885.19
2022-12-09T11:25:15.807Z,99870.91
2022-12-09T11:27:49.587Z,99881.91
2022-12-09T11:30:35.068Z,99877.00
2022-12-09T11:33:14.345Z,99877.41
2022-12-09T11:35:44.144Z,99873.59
2022-12-09T11:38:41.344Z,99874.69
2022-12-09T11:41:43.259Z,99870.63
2022-12-09T11:44:23.738Z,99863.72
2022-12-09T11:47:00.331Z,99867.22
2022-12-09T11:49:27.787Z,99853.56
2022-12-09T11:52:01.936Z,99856.75
2022-12-09T11:54:40.120Z,99851.78
2022-12-09T11:57:21.168Z,99854.94
2022-12-09T11:59:50.777Z,99849.69
2022-12-09T12:02:37.508Z,99848.47
2022-12-09T12:05:21.987Z,99849.75
2022-12-09T12:08:00.861Z,99851.16
2022-12-09T12:10:31.476Z,99852.72
2022-12-09T12:13:00.937Z,99854.03
2022-12-09T12:15:40.763Z,99854.22
2022-12-09T12:18:13.402Z,99857.56
2022-12-09T12:21:03.292Z,99859.91
2022-12-09T12:24:20.157Z,99855.84
2022-12-09T12:26:59.032Z,99857.06
2022-12-09T12:29:34.948Z,99865.06
2022-12-09T12:32:10.481Z,99861.38
2022-12-09T12:34:49.074Z,99861.91
2022-12-09T12:37:29.886Z,99861.19
2022-12-09T12:40:37.246Z,99864.13
2022-12-09T12:43:48.556Z,99864.84
2022-12-09T12:46:29.945Z,99864.75
2022-12-09T12:49:18.682Z,99855.97
2022-12-09T12:51:54.662Z,99855.00
2022-12-09T12:54:36.492Z,99847.78
2022-12-09T12:57:11.696Z,99851.66
2022-12-09T12:59:50.121Z,99849.09
2022-12-09T13:02:28.691Z,99846.25
2022-12-09T13:05:00.799Z,99844.31
2022-12-09T13:07:45.747Z,99843.69
2022-12-09T13:10:42.660Z,99845.75
2022-12-09T13:13:18.664Z,99846.38
2022-12-09T13:15:58.099Z,99845.50
2022-12-09T13:18:36.963Z,99846.88
2022-12-09T13:21:05.428Z,99847.81
2022-12-09T13:23:40.999Z,99845.09
2022-12-09T13:26:10.577Z,99843.63
2022-12-09T13:28:46.823Z,99839.53
2022-12-09T13:31:13.493Z,99844.78
2022-12-09T13:33:44.009Z,99839.34
2022-12-09T13:36:21.849Z,99848.03
2022-12-09T13:38:48.611Z,99845.34
2022-12-09T13:41:27.245Z,99849.72
2022-12-09T13:43:54.683Z,99839.53
2022-12-09T13:46:22.819Z,99851.16
2022-12-09T13:48:49.621Z,99844.38
2022-12-09T13:51:17.350Z,99850.78
2022-12-09T13:53:50.762Z,99857.56
2022-12-09T13:56:17.075Z,99867.03
2022-12-09T13:59:11.497Z,99855.25
2022-12-09T14:02:01.029Z,99852.78
2022-12-09T14:04:33.765Z,99867.59
2022-12-09T14:07:10.069Z,99867.31
2022-12-09T14:09:46.812Z,99866.19
2022-12-09T14:12:43.931Z,99874.69
2022-12-09T14:15:25.672Z,99871.91
2022-12-09T14:17:51.939Z,99874.50
2022-12-09T14:20:21.271Z,99883.41
2022-12-09T14:23:07.938Z,99883.59
2022-12-09T14:25:34.186Z,99885.97
2022-12-09T14:28:09.586Z,99887.63
2022-12-09T14:30:52.915Z,99879.97
2022-12-09T14:33:34.695Z,99890.72
2022-12-09T14:36:13.241Z,99897.94
2022-12-09T14:39:16.138Z,99898.25
2022-12-09T14:41:58.578Z,99899.75
2022-12-09T14:44:32.906Z,99906.34
2022-12-09T14:47:32.341Z,99904.53
2022-12-09T14:50:09.731Z,99910.25
2022-12-09T14:52:36.504Z,99913.25
2022-12-09T14:55:06.604Z,99912.91
2022-12-09T14:58:00.619Z,99915.59
2022-12-09T15:00:37.002Z,99919.84
2022-12-09T15:03:36.895Z,99918.59
2022-12-09T15:06:06.319Z,99917.41
2022-12-09T15:08:38.047Z,99923.53
2022-12-09T15:11:26.588Z,99923.63
2022-12-09T15:13:55.382Z,99924.31
2022-12-09T15:16:24.558Z,99931.47
2022-12-09T15:18:51.822Z,99922.63
2022-12-09T15:21:29.983Z,99922.44
2022-12-09T15:23:57.584Z,99923.69
2022-12-09T15:26:29.376Z,99920.53
2022-12-09T15:28:57.333Z,99920.78
2022-12-09T15:31:26.810Z,99924.47
2022-12-09T15:33:58.634Z,99925.19
2022-12-09T15:36:35.160Z,99918.88
2022-12-09T15:39:11.491Z,99920.06
2022-12-09T15:42:02.107Z,99918.91
2022-12-09T15:44:32.841Z,99922.69
2022-12-09T15:46:59.863Z,99922.53
2022-12-09T15:49:29.835Z,99918.63
2022-12-09T15:51:56.504Z,99922.25
2022-12-09T15:54:26.694Z,99928.06
2022-12-09T15:57:01.862Z,99918.78
2022-12-09T15:59:35.331Z,99918.34
2022-12-09T16:02:01.906Z,99922.25
2022-12-09T16:04:31.919Z,99930.63
2022-12-09T16:07:07.868Z,99924.78
2022-12-09T16:09:34.352Z,99921.66
2022-12-09T16:12:00.788Z,99920.72
2022-12-09T16:14:41.429Z,99919.97
2022-12-09T16:17:28.512Z,99917.72
2022-12-09T16:19:55.097Z,99913.41
2022-12-09T16:22:27.867Z,99911.31
2022-12-09T16:25:14.538Z,99914.31
2022-12-09T16:27:44.702Z,99914.44
2022-12-09T16:30:17.403Z,99914.28
2022-12-09T16:32:54.534Z,99918.88
2022-12-09T16:35:40.835Z,99921.56
2022-12-09T16:38:10.214Z,99923.22
2022-12-09T16:40:45.609Z,99913.78
2022-12-09T16:43:18.812Z,99913.44
2022-12-09T16:45:50.073Z,99914.66
2022-12-09T16:48:17.555Z,99922.78
2022-12-09T16:51:11.786Z,99918.66
2022-12-09T16:53:49.833Z,99922.09
2022-12-09T16:56:19.566Z,99922.88
2022-12-09T16:58:46.460Z,99930.22
2022-12-09T17:01:14.778Z,99925.41
2022-12-09T17:03:45.598Z,99935.25
2022-12-09T17:06:17.607Z,99941.50
2022-12-09T17:08:44.610Z,99930.81
2022-12-09T17:11:11.455Z,99941.50
2022-12-09T17:13:38.299Z,99940.59
2022-12-09T17:16:05.800Z,99938.41
2022-12-09T17:18:32.676Z,99943.38
2022-12-09T17:21:01.061Z,99944.28
2022-12-09T17:23:27.568Z,99944.50
2022-12-09T17:25:58.452Z,99943.69
2022-12-09T17:28:29.873Z,99946.31
2022-12-09T17:30:57.646Z,99949.28
2022-12-09T17:33:28.686Z,99944.94
2022-12-09T17:35:55.597Z,99949.59
2022-12-09T17:38:22.221Z,99950.94
2022-12-09T17:40:49.036Z,99950.66
2022-12-09T17:43:15.405Z,99952.44
2022-12-09T17:45:42.489Z,99956.97
2022-12-09T17:48:09.005Z,99960.25
2022-12-09T17:50:37.826Z,99958.91
2022-12-09T17:53:04.195Z,99964.03
2022-12-09T17:55:30.931Z,99968.69
2022-12-09T17:57:57.377Z,99955.66
2022-12-09T18:00:23.930Z,99971.84
2022-12-09T18:02:50.279Z,99969.00
2022-12-09T18:05:16.640Z,99970.78
2022-12-09T18:07:43.094Z,99972.91
2022-12-09T18:10:10.594Z,99972.91
2022-12-09T18:12:37.210Z,99974.38
2022-12-09T18:15:04.018Z,99967.03
2022-12-09T18:17:32.440Z,99971.31
2022-12-09T18:19:58.784Z,99971.25
2022-12-09T18:22:25.228Z,99969.13
2022-12-09T18:24:51.561Z,99972.16
2022-12-09T18:27:17.898Z,99973.38
2022-12-09T18:29:44.232Z,99975.47
2022-12-09T18:32:10.619Z,99971.28
2022-12-09T18:34:36.993Z,99977.25
2022-12-09T18:37:03.360Z,99981.47
2022-12-09T18:39:29.863Z,99985.66
2022-12-09T18:41:56.194Z,99983.31
2022-12-09T18:44:22.612Z,99980.59
2022-12-09T18:46:50.019Z,99984.66
2022-12-09T18:49:21.752Z,99984.50
2022-12-09T18:51:49.204Z,99978.66
2022-12-09T18:54:18.741Z,99980.78
2022-12-09T18:56:45.110Z,99987.25
2022-12-09T18:59:12.109Z,99988.44
2022-12-09T19:01:41.721Z,99978.16
2022-12-09T19:04:14.095Z,99979.91
2022-12-09T19:06:41.411Z,99987.19
2022-12-09T19:09:11.033Z,99979.69
2022-12-09T19:11:39.083Z,99983.56
2022-12-09T19:14:06.639Z,99993.00
2022-12-09T19:16:33.258Z,99987.16
2022-12-09T19:19:05.424Z,99998.69
2022-12-09T19:21:34.218Z,99993.19
2022-12-09T19:24:00.686Z,100001.13
2022-12-09T19:26:29.505Z,99998.03
2022-12-09T19:28:58.314Z,100010.22
2022-12-09T19:31:30.301Z,100011.44
2022-12-09T19:33:58.460Z,100015.88
2022-12-09T19:36:25.889Z,100013.50
2022-12-09T19:38:52.601Z,100015.31
2022-12-09T19:41:19.270Z,100019.44
2022-12-09T19:43:46.098Z,100010.38
2022-12-09T19:46:14.481Z,100017.56
2022-12-09T19:48:44.148Z,100015.44
2022-12-09T19:51:15.396Z,100020.28
2022-12-09T19:53:42.704Z,100015.50
2022-12-09T19:56:12.335Z,100013.38
2022-12-09T19:58:40.342Z,100018.88
2022-12-09T20:01:11.963Z,100018.66
2022-12-09T20:03:39.648Z,100021.63
2022-12-09T20:06:07.735Z,100009.78
2022-12-09T20:08:34.248Z,100016.50
2022-12-09T20:11:00.702Z,100012.31
2022-12-09T20:13:31.662Z,100013.72
2022-12-09T20:16:03.631Z,100020.09
2022-12-09T20:18:30.019Z,100016.31
2022-12-09T20:21:00.614Z,100012.50
2022-12-09T20:23:27.049Z,100011.75
2022-12-09T20:25:53.851Z,100011.28
2022-12-09T20:28:20.599Z,100019.00
2022-12-09T20:30:46.967Z,100014.91
2022-12-09T20:33:13.341Z,100021.72
2022-12-09T20:35:39.726Z,100018.91
2022-12-09T20:38:06.473Z,100021.03
2022-12-09T20:40:40.379Z,100021.47
2022-12-09T20:43:07.206Z,100030.22
2022-12-09T20:45:33.574Z,100031.03
2022-12-09T20:47:59.970Z,100033.28
2022-12-09T20:50:26.324Z,100040.81
2022-12-09T20:52:52.761Z,100029.84
2022-12-09T20:55:20.438Z,100036.22
2022-12-09T20:57:46.780Z,100041.13
2022-12-09T21:00:13.394Z,100039.84
2022-12-09T21:02:40.046Z,100043.34
2022-12-09T21:05:08.202Z,100046.66
2022-12-09T21:07:34.803Z,100039.66
2022-12-09T21:10:01.323Z,100042.69
2022-12-09T21:12:27.703Z,100044.91
2022-12-09T21:14:54.071Z,100050.25
2022-12-09T21:17:20.546Z,100045.72
2022-12-09T21:19:47.171Z,100044.56
2022-12-09T21:22:13.570Z,100046.38
2022-12-09T21:24:39.936Z,100039.25
2022-12-09T21:27:06.318Z,100040.56
2022-12-09T21:29:32.728Z,100045.53
2022-12-09T21:32:00.245Z,100042.94
2022-12-09T21:34:27.135Z,100050.63
2022-12-09T21:36:53.551Z,100044.84
2022-12-09T21:39:19.972Z,100045.00
2022-12-09T21:41:46.447Z,100050.25
2022-12-09T21:44:18.335Z,100049.31
2022-12-09T21:46:45.039Z,100051.72
2022-12-09T21:49:11.787Z,100053.16
2022-12-09T21:51:38.198Z,100048.59
2022-12-09T21:54:04.747Z,100060.38
2022-12-09T21:56:33.070Z,100051.88
2022-12-09T21:58:59.954Z,100059.34
2022-12-09T22:01:34.347Z,100061.16
2022-12-09T22:04:02.554Z,100060.31
2022-12-09T22:06:29.411Z,100061.06
2022-12-09T22:08:58.152Z,100053.38
2022-12-09T22:11:26.946Z,100057.94
2022-12-09T22:13:58.323Z,100061.72
2022-12-09T22:16:28.343Z,100064.22
2022-12-09T22:18:56.546Z,100057.56
2022-12-09T22:21:25.912Z,100060.47
2022-12-09T22:23:59.543Z,100061.50
2022-12-09T22:26:26.292Z,100059.44
2022-12-09T22:28:53.184Z,100056.78
2022-12-09T22:31:22.157Z,100058.97
2022-12-09T22:33:55.151Z,100050.78
2022-12-09T22:36:22.532Z,100048.66
2022-12-09T22:38:48.989Z,100057.94
2022-12-09T22:41:18.513Z,100058.56
2022-12-09T22:43:45.457Z,100055.94
2022-12-09T22:46:17.475Z,100062.50
2022-12-09T22:48:44.048Z,100065.75
2022-12-09T22:51:11.674Z,100067.47
2022-12-09T22:53:38.804Z,100067.28
2022-12-09T22:56:05.907Z,100061.34
2022-12-09T22:58:33.729Z,100069.44
2022-12-09T23:01:00.139Z,100070.91
2022-12-09T23:03:26.563Z,100065.47
2022-12-09T23:05:53.444Z,100065.03
2022-12-09T23:08:20.096Z,100068.06
2022-12-09T23:10:46.504Z,100066.75
2022-12-09T23:13:12.883Z,100080.31
2022-12-09T23:15:39.390Z,100071.44
2022-12-09T23:18:06.139Z,100070.22
2022-12-09T23:20:32.521Z,100069.84
2022-12-09T23:22:58.900Z,100073.63
2022-12-09T23:25:25.255Z,100073.94
2022-12-09T23:27:51.923Z,100075.56
2022-12-09T23:30:18.379Z,100081.03
2022-12-09T23:32:44.761Z,100073.53
2022-12-09T23:35:11.338Z,100065.19
2022-12-09T23:37:37.725Z,100065.78
2022-12-09T23:40:05.427Z,100071.88
2022-12-09T23:42:31.928Z,100073.94
2022-12-09T23:44:58.305Z,100075.66
2022-12-09T23:47:24.716Z,100078.72
2022-12-09T23:49:51.084Z,100077.16
2022-12-09T23:52:17.968Z,100082.53
2022-12-09T23:54:44.332Z,100086.03
2022-12-09T23:57:10.688Z,100087.09
2022-12-09T23:59:37.187Z,100084.72
